Time;durP1;ratioP1;P1;durP2;ratioP2;P2;SDS_P1;SDS_P2;PMS_P1;PMS_P2;Temp;Humidity;BMP_temperature;BMP_pressure;BME280_temperature;BME280_humidity;BME280_pressure;Samples;Min_cycle;Max_cycle;Signal;HPM_P1;HPM_P2
2023/06/03 00:01:28;;;;;;;5.22;2.88;;;11.10;99.90;;;;;;5076456;28;20048;-38
2023/06/03 00:03:54;;;;;;;6.53;3.08;;;11.10;99.90;;;;;;5075017;28;20525;-37
2023/06/03 00:06:20;;;;;;;5.00;3.25;;;11.10;99.90;;;;;;5076660;28;20040;-38
2023/06/03 00:08:46;;;;;;;4.20;2.80;;;11.00;99.90;;;;;;5073188;28;20652;-41
2023/06/03 00:11:13;;;;;;;5.40;2.95;;;11.00;99.90;;;;;;5065063;28;20431;-41
2023/06/03 00:13:39;;;;;;;4.40;2.92;;;10.90;99.90;;;;;;5077524;28;20113;-41
2023/06/03 00:16:05;;;;;;;4.53;2.63;;;10.90;99.90;;;;;;5075822;28;20047;-40
2023/06/03 00:18:31;;;;;;;2.60;2.33;;;10.90;99.90;;;;;;5075580;28;20593;-41
2023/06/03 00:20:56;;;;;;;4.97;2.67;;;10.90;99.90;;;;;;5076834;28;20048;-37
2023/06/03 00:23:22;;;;;;;9.77;3.33;;;10.90;99.90;;;;;;5075642;28;20040;-37
2023/06/03 00:25:48;;;;;;;6.35;3.53;;;10.80;99.90;;;;;;5076580;28;20044;-38
2023/06/03 00:28:15;;;;;;;9.18;3.03;;;10.80;99.90;;;;;;5076894;28;20139;-36
2023/06/03 00:30:41;;;;;;;3.70;2.47;;;10.80;99.90;;;;;;5076348;28;20374;-36
2023/06/03 00:33:06;;;;;;;4.40;2.90;;;10.80;99.90;;;;;;5074926;28;20831;-40
2023/06/03 00:35:33;;;;;;;4.88;3.05;;;10.80;99.90;;;;;;5075977;28;20051;-39
2023/06/03 00:37:59;;;;;;;7.18;2.97;;;10.70;99.90;;;;;;5061792;28;20048;-40
2023/06/03 00:40:25;;;;;;;5.40;3.03;;;10.70;99.90;;;;;;5061999;28;20036;-40
2023/06/03 00:42:51;;;;;;;6.30;2.47;;;10.70;99.90;;;;;;5069784;28;20509;-39
2023/06/03 00:45:17;;;;;;;5.93;3.03;;;10.70;99.90;;;;;;5072705;28;20079;-38
2023/06/03 00:47:43;;;;;;;5.95;2.47;;;10.60;99.90;;;;;;5075614;28;20051;-37
2023/06/03 00:50:11;;;;;;;12.32;3.45;;;10.60;99.90;;;;;;5073232;28;20059;-38
2023/06/03 00:52:38;;;;;;;7.07;2.97;;;10.60;99.90;;;;;;5076522;28;20471;-39
2023/06/03 00:55:05;;;;;;;6.85;2.50;;;10.50;99.90;;;;;;5074928;28;20399;-39
2023/06/03 00:57:30;;;;;;;4.57;2.17;;;10.50;99.90;;;;;;5073980;28;20521;-38
2023/06/03 00:59:56;;;;;;;4.25;2.05;;;10.50;99.90;;;;;;5075363;28;20047;-41
2023/06/03 01:02:23;;;;;;;4.65;2.67;;;10.50;99.90;;;;;;5075718;28;20145;-40
2023/06/03 01:04:50;;;;;;;3.78;2.13;;;10.50;99.90;;;;;;5075279;28;20054;-38
2023/06/03 01:07:26;;;;;;;3.83;2.10;;;10.40;99.90;;;;;;5075327;28;20059;-42
2023/06/03 01:10:25;;;;;;;7.10;2.50;;;10.40;99.90;;;;;;5059917;28;20051;-38
2023/06/03 01:13:07;;;;;;;6.15;2.05;;;10.40;99.90;;;;;;5075795;28;20044;-37
2023/06/03 01:15:35;;;;;;;4.78;2.22;;;10.40;99.90;;;;;;5074081;28;20044;-39
2023/06/03 01:18:05;;;;;;;3.80;2.30;;;10.40;99.90;;;;;;5074248;28;20475;-38
2023/06/03 01:20:32;;;;;;;3.78;2.10;;;10.40;99.90;;;;;;5075463;28;20055;-40
2023/06/03 01:23:28;;;;;;;5.18;2.35;;;10.40;99.90;;;;;;5074887;28;20048;-37
2023/06/03 01:25:57;;;;;;;4.20;2.35;;;10.30;99.90;;;;;;5074360;28;20052;-36
2023/06/03 01:28:23;;;;;;;4.63;2.35;;;10.30;99.90;;;;;;5073767;28;20179;-37
2023/06/03 01:30:51;;;;;;;5.35;2.58;;;10.30;99.90;;;;;;5075470;28;20070;-40
2023/06/03 01:33:21;;;;;;;4.07;2.60;;;10.30;99.90;;;;;;5075667;28;20075;-39
2023/06/03 01:35:53;;;;;;;5.60;2.80;;;10.30;99.90;;;;;;5074890;28;20083;-36
2023/06/03 01:38:18;;;;;;;5.10;2.17;;;10.30;99.90;;;;;;5057255;28;20049;-39
2023/06/03 01:40:45;;;;;;;3.67;2.03;;;10.20;99.90;;;;;;5062435;28;20036;-38
2023/06/03 01:43:11;;;;;;;6.85;2.10;;;10.20;99.90;;;;;;5066219;28;20044;-40
2023/06/03 01:45:37;;;;;;;5.28;1.77;;;10.20;99.90;;;;;;5074784;28;20040;-36
2023/06/03 01:48:03;;;;;;;2.90;1.90;;;10.20;99.90;;;;;;5074233;28;20036;-39
2023/06/03 01:50:29;;;;;;;4.45;2.00;;;10.20;99.90;;;;;;5067861;28;20036;-37
2023/06/03 01:52:55;;;;;;;3.55;1.90;;;10.20;99.90;;;;;;5074505;28;20105;-36
2023/06/03 01:55:21;;;;;;;4.45;1.70;;;10.30;99.90;;;;;;5074489;28;20055;-41
2023/06/03 01:57:47;;;;;;;3.33;2.22;;;10.30;99.90;;;;;;5073641;28;20055;-38
2023/06/03 02:00:13;;;;;;;5.35;2.28;;;10.30;99.90;;;;;;5072851;28;20661;-37
2023/06/03 02:02:39;;;;;;;5.80;2.33;;;10.30;99.90;;;;;;5068343;28;20050;-37
2023/06/03 02:05:05;;;;;;;5.20;2.40;;;10.30;99.90;;;;;;5064712;28;20058;-38
2023/06/03 02:07:31;;;;;;;4.78;1.73;;;10.30;99.90;;;;;;5072244;28;20554;-40
2023/06/03 02:09:58;;;;;;;3.22;1.77;;;10.30;99.90;;;;;;5062501;28;20511;-39
2023/06/03 02:12:23;;;;;;;5.10;1.92;;;10.30;99.90;;;;;;5067441;28;20411;-40
2023/06/03 02:14:56;;;;;;;2.65;1.60;;;10.30;99.90;;;;;;5074142;28;20044;-38
2023/06/03 02:17:24;;;;;;;4.03;1.98;;;10.40;99.90;;;;;;5072831;28;20337;-36
2023/06/03 02:19:50;;;;;;;3.22;2.05;;;10.30;99.90;;;;;;5074628;28;20533;-39
2023/06/03 02:22:17;;;;;;;4.20;1.73;;;10.30;99.90;;;;;;5074622;28;20117;-40
2023/06/03 02:24:45;;;;;;;5.40;1.70;;;10.40;99.90;;;;;;5073770;28;20052;-36
2023/06/03 02:27:14;;;;;;;4.32;1.95;;;10.40;99.90;;;;;;5055275;28;20384;-41
2023/06/03 02:29:41;;;;;;;5.35;1.77;;;10.30;99.90;;;;;;5074283;28;20062;-38
2023/06/03 02:32:07;;;;;;;3.42;1.45;;;10.40;99.90;;;;;;5073824;28;20659;-37
2023/06/03 02:34:33;;;;;;;6.60;1.73;;;10.30;99.90;;;;;;5073213;28;20067;-41
2023/06/03 02:36:59;;;;;;;3.70;1.92;;;10.30;99.90;;;;;;5066096;28;20047;-38
2023/06/03 02:39:25;;;;;;;4.30;1.90;;;10.20;99.90;;;;;;5053156;28;20045;-37
2023/06/03 02:41:50;;;;;;;4.57;1.75;;;10.20;99.90;;;;;;5068714;28;20209;-36
2023/06/03 02:44:17;;;;;;;3.70;2.10;;;10.20;99.90;;;;;;5063934;28;20850;-40
2023/06/03 02:46:43;;;;;;;4.25;1.70;;;10.10;99.90;;;;;;5073852;28;20182;-39
2023/06/03 02:49:10;;;;;;;3.17;1.40;;;10.10;99.90;;;;;;5069820;28;20118;-36
2023/06/03 02:51:40;;;;;;;2.40;1.35;;;10.10;99.90;;;;;;5069879;28;20048;-38
2023/06/03 02:54:06;;;;;;;3.35;1.48;;;10.00;99.90;;;;;;5073063;28;20044;-39
2023/06/03 02:56:31;;;;;;;5.65;2.08;;;10.00;99.90;;;;;;5073291;28;20044;-37
2023/06/03 02:58:57;;;;;;;4.07;1.83;;;9.90;99.90;;;;;;5073138;28;20433;-35
2023/06/03 03:01:23;;;;;;;4.25;1.70;;;9.90;99.90;;;;;;5073689;28;20048;-37
2023/06/03 03:03:49;;;;;;;4.78;1.85;;;9.80;99.90;;;;;;5073056;28;20951;-38
2023/06/03 03:06:15;;;;;;;5.15;1.98;;;9.70;99.90;;;;;;5073714;28;20044;-36
2023/06/03 03:08:42;;;;;;;4.85;1.65;;;9.60;99.90;;;;;;5072463;28;20051;-40
2023/06/03 03:11:09;;;;;;;3.47;1.73;;;9.50;99.90;;;;;;5073927;28;20051;-40
2023/06/03 03:13:38;;;;;;;3.10;1.40;;;9.50;99.90;;;;;;5074010;28;20044;-36
2023/06/03 03:16:03;;;;;;;5.25;1.67;;;9.50;99.90;;;;;;5073559;28;20048;-38
2023/06/03 03:18:30;;;;;;;5.82;1.85;;;9.40;99.90;;;;;;5073724;28;20040;-39
2023/06/03 03:20:56;;;;;;;5.47;1.95;;;9.30;99.90;;;;;;5073496;28;20865;-36
2023/06/03 03:23:22;;;;;;;6.90;1.77;;;9.30;99.90;;;;;;5073336;28;20046;-38
2023/06/03 03:25:47;;;;;;;4.40;1.90;;;9.30;99.90;;;;;;5072971;28;20036;-36
2023/06/03 03:28:14;;;;;;;6.97;2.20;;;9.30;99.90;;;;;;5073366;28;20897;-40
2023/06/03 03:30:39;;;;;;;4.07;2.00;;;9.20;99.90;;;;;;5073704;28;20092;-38
2023/06/03 03:33:05;;;;;;;3.03;2.35;;;9.20;99.90;;;;;;5055378;28;20449;-36
2023/06/03 03:35:32;;;;;;;5.65;2.25;;;9.20;99.90;;;;;;5072615;28;20819;-37
2023/06/03 03:38:03;;;;;;;5.00;1.85;;;9.10;99.90;;;;;;5058673;28;20439;-36
2023/06/03 03:40:32;;;;;;;4.22;1.88;;;9.20;99.90;;;;;;5059877;28;20036;-38
2023/06/03 03:42:59;;;;;;;4.20;2.05;;;9.20;99.90;;;;;;5065803;28;20040;-37
2023/06/03 03:45:35;;;;;;;3.67;2.00;;;9.20;99.90;;;;;;5071431;28;20048;-38
2023/06/03 03:48:06;;;;;;;5.30;2.42;;;9.20;99.90;;;;;;5071951;28;20044;-37
2023/06/03 03:50:44;;;;;;;3.97;2.03;;;9.20;99.90;;;;;;5065914;28;20421;-38
2023/06/03 03:53:16;;;;;;;4.50;1.90;;;9.20;99.90;;;;;;5073414;28;20047;-38
2023/06/03 03:55:44;;;;;;;3.08;1.90;;;9.30;99.90;;;;;;5072755;28;20467;-36
2023/06/03 03:58:40;;;;;;;7.28;2.17;;;9.30;99.90;;;;;;5072745;28;20590;-39
2023/06/03 04:01:13;;;;;;;5.38;2.08;;;9.30;99.90;;;;;;5064959;28;20078;-39
2023/06/03 04:03:54;;;;;;;4.15;1.70;;;9.30;99.90;;;;;;5071234;28;20054;-39
2023/06/03 04:06:36;;;;;;;5.38;2.30;;;9.40;99.90;;;;;;5071057;28;20079;-38
2023/06/03 04:09:02;;;;;;;3.00;1.80;;;9.40;99.90;;;;;;5072447;28;20573;-40
2023/06/03 04:11:30;;;;;;;4.53;1.98;;;9.50;99.90;;;;;;5073094;28;20592;-37
2023/06/03 04:13:58;;;;;;;4.72;2.63;;;9.80;99.90;;;;;;5072013;28;21010;-36
2023/06/03 04:16:50;;;;;;;4.20;2.58;;;10.40;99.90;;;;;;5071123;28;20051;-38
2023/06/03 04:19:32;;;;;;;3.05;2.03;;;11.30;99.90;;;;;;5066675;28;20036;-43
2023/06/03 04:22:02;;;;;;;3.20;1.93;;;12.60;99.90;;;;;;5056441;28;20342;-37
2023/06/03 04:24:28;;;;;;;3.97;2.00;;;13.80;99.90;;;;;;5076105;28;20163;-43
2023/06/03 04:26:54;;;;;;;3.72;2.33;;;14.90;99.90;;;;;;5075914;28;20071;-40
2023/06/03 04:29:20;;;;;;;3.47;2.22;;;16.00;99.90;;;;;;5076967;28;20189;-38
2023/06/03 04:31:45;;;;;;;6.57;2.03;;;16.90;99.90;;;;;;5076435;28;20361;-44
2023/06/03 04:34:11;;;;;;;4.20;2.10;;;17.70;99.90;;;;;;5075270;28;20527;-41
2023/06/03 04:36:37;;;;;;;3.17;2.13;;;18.30;98.50;;;;;;5071316;28;20095;-38
2023/06/03 04:39:06;;;;;;;4.72;2.60;;;18.90;99.40;;;;;;5058504;28;20401;-42
2023/06/03 04:41:34;;;;;;;5.30;2.53;;;19.60;98.20;;;;;;5069227;28;20047;-40
2023/06/03 04:44:01;;;;;;;3.30;2.17;;;20.30;97.70;;;;;;5067222;28;20437;-37
2023/06/03 04:46:29;;;;;;;3.83;1.85;;;20.80;97.00;;;;;;5075129;28;20054;-40
2023/06/03 04:48:56;;;;;;;3.65;2.20;;;21.40;96.60;;;;;;5072979;28;20091;-40
2023/06/03 04:51:24;;;;;;;4.30;1.98;;;21.80;93.40;;;;;;5071334;28;20044;-37
2023/06/03 04:53:50;;;;;;;3.17;2.15;;;22.30;94.30;;;;;;5075461;28;20048;-44
2023/06/03 04:56:16;;;;;;;4.60;2.03;;;22.50;92.90;;;;;;5076046;28;20093;-46
2023/06/03 04:58:42;;;;;;;3.03;2.22;;;23.00;93.00;;;;;;5075613;28;20397;-44
2023/06/03 05:01:08;;;;;;;4.75;2.50;;;23.40;91.90;;;;;;5076086;28;20381;-40
2023/06/03 05:03:38;;;;;;;2.92;1.88;;;23.60;92.00;;;;;;5075360;28;20117;-44
2023/06/03 05:06:10;;;;;;;4.32;2.08;;;23.40;90.40;;;;;;5075567;28;20048;-43
2023/06/03 05:08:38;;;;;;;3.17;2.00;;;23.80;90.80;;;;;;5074180;28;20040;-42
2023/06/03 05:11:03;;;;;;;4.53;2.00;;;24.20;90.40;;;;;;5075624;28;20417;-43
2023/06/03 05:13:30;;;;;;;3.75;2.20;;;24.50;90.30;;;;;;5075988;28;20540;-45
2023/06/03 05:15:56;;;;;;;4.32;2.00;;;24.60;88.90;;;;;;5075231;28;20048;-42
2023/06/03 05:18:21;;;;;;;3.40;1.90;;;25.00;87.80;;;;;;5075364;28;20036;-41
2023/06/03 05:20:47;;;;;;;3.80;2.00;;;25.20;86.20;;;;;;5075526;28;20044;-41
2023/06/03 05:23:12;;;;;;;3.15;2.08;;;25.20;85.30;;;;;;5075926;28;20048;-39
2023/06/03 05:25:38;;;;;;;5.63;1.90;;;24.50;85.90;;;;;;5075085;28;20040;-39
2023/06/03 05:28:05;;;;;;;4.57;2.13;;;24.50;86.40;;;;;;5074512;28;20040;-44
2023/06/03 05:30:31;;;;;;;4.53;2.35;;;24.30;85.90;;;;;;5075666;28;20574;-42
2023/06/03 05:32:56;;;;;;;3.53;1.92;;;23.30;86.00;;;;;;5074021;28;20311;-38
2023/06/03 05:35:22;;;;;;;3.15;2.25;;;22.30;86.40;;;;;;5074831;28;20048;-43
2023/06/03 05:37:48;;;;;;;3.30;2.40;;;21.90;88.00;;;;;;5061895;28;20049;-39
2023/06/03 05:40:13;;;;;;;3.17;1.95;;;21.50;88.10;;;;;;5059108;28;20077;-42
2023/06/03 05:42:39;;;;;;;3.25;2.00;;;21.00;89.00;;;;;;5103787;27;20051;-41
2023/06/03 05:45:06;;;;;;;4.18;2.25;;;20.60;89.10;;;;;;5070621;28;20075;-42
2023/06/03 05:47:31;;;;;;;3.70;1.88;;;20.00;90.00;;;;;;5074702;28;20093;-40
2023/06/03 05:49:57;;;;;;;3.38;1.85;;;19.40;90.30;;;;;;5068596;28;20048;-39
2023/06/03 05:52:23;;;;;;;2.72;1.90;;;18.90;91.40;;;;;;5075837;28;20114;-40
2023/06/03 05:54:48;;;;;;;3.30;1.70;;;18.40;91.60;;;;;;5074084;28;20535;-39
2023/06/03 05:57:14;;;;;;;4.20;1.80;;;19.00;92.30;;;;;;5074524;28;20059;-41
2023/06/03 05:59:40;;;;;;;4.78;2.08;;;20.70;92.10;;;;;;5075017;28;20055;-46
2023/06/03 06:02:06;;;;;;;2.75;1.65;;;22.40;90.90;;;;;;5074566;28;20072;-45
2023/06/03 06:04:31;;;;;;;5.28;1.90;;;23.90;88.50;;;;;;5074185;28;20050;-42
2023/06/03 06:06:57;;;;;;;6.63;2.53;;;25.40;86.20;;;;;;5073869;28;20040;-37
2023/06/03 06:09:23;;;;;;;3.83;2.15;;;26.00;85.60;;;;;;5074320;28;20044;-45
2023/06/03 06:11:48;;;;;;;2.92;1.90;;;26.70;84.50;;;;;;5074867;28;20313;-43
2023/06/03 06:14:14;;;;;;;3.83;1.90;;;26.70;82.50;;;;;;5064955;28;20051;-47
2023/06/03 06:16:40;;;;;;;4.43;1.70;;;27.10;82.60;;;;;;5063984;28;20052;-40
2023/06/03 06:19:05;;;;;;;2.60;1.90;;;27.20;80.60;;;;;;5073075;28;20478;-39
2023/06/03 06:21:31;;;;;;;4.90;2.22;;;27.80;79.70;;;;;;5075136;28;20040;-46
2023/06/03 06:23:56;;;;;;;3.35;1.70;;;27.80;78.60;;;;;;5073826;28;20544;-41
2023/06/03 06:26:22;;;;;;;3.72;1.95;;;27.80;78.30;;;;;;5075369;28;20097;-40
2023/06/03 06:28:48;;;;;;;2.47;1.55;;;28.20;78.60;;;;;;5074123;28;20043;-38
2023/06/03 06:31:18;;;;;;;5.10;2.20;;;28.60;78.20;;;;;;5073250;28;20223;-42
2023/06/03 06:33:47;;;;;;;2.65;2.00;;;28.60;76.00;;;;;;5066487;28;20044;-44
2023/06/03 06:36:16;;;;;;;4.47;1.98;;;28.60;75.80;;;;;;5069078;28;20052;-41
2023/06/03 06:38:41;;;;;;;3.70;1.80;;;28.70;76.00;;;;;;5071810;28;20431;-45
2023/06/03 06:41:11;;;;;;;3.70;1.92;;;28.90;75.50;;;;;;5063745;28;20048;-39
2023/06/03 06:43:39;;;;;;;3.60;1.77;;;28.90;74.60;;;;;;5065567;28;20040;-46
2023/06/03 06:46:05;;;;;;;3.97;1.60;;;28.90;74.60;;;;;;5074198;28;20071;-43
2023/06/03 06:48:34;;;;;;;3.80;2.13;;;29.10;74.40;;;;;;5073662;28;20047;-45
2023/06/03 06:51:00;;;;;;;4.07;2.13;;;29.00;73.90;;;;;;5066199;28;20474;-41
2023/06/03 06:53:27;;;;;;;4.90;1.92;;;28.50;73.80;;;;;;5073183;28;20094;-43
2023/06/03 06:56:00;;;;;;;3.42;1.80;;;28.70;74.00;;;;;;5073408;28;20094;-42
2023/06/03 06:58:29;;;;;;;2.50;2.00;;;29.10;72.40;;;;;;5073245;28;20059;-43
2023/06/03 07:00:57;;;;;;;2.97;1.50;;;29.00;72.50;;;;;;5074415;28;20119;-42
2023/06/03 07:03:23;;;;;;;4.63;1.70;;;29.30;71.80;;;;;;5073128;28;20372;-39
2023/06/03 07:05:52;;;;;;;3.10;1.65;;;29.70;72.70;;;;;;5073974;28;20058;-42
2023/06/03 07:08:18;;;;;;;5.00;2.05;;;29.40;71.20;;;;;;5070694;28;20040;-39
2023/06/03 07:10:44;;;;;;;5.28;1.55;;;29.80;70.70;;;;;;5073874;28;20560;-46
2023/06/03 07:13:13;;;;;;;2.35;1.60;;;29.70;69.80;;;;;;5073789;28;20487;-38
2023/06/03 07:15:39;;;;;;;4.00;1.67;;;29.50;68.30;;;;;;5071894;28;20055;-39
2023/06/03 07:18:05;;;;;;;2.80;1.60;;;29.70;70.00;;;;;;5063426;28;20346;-42
2023/06/03 07:20:41;;;;;;;3.55;1.80;;;29.20;70.00;;;;;;5073108;28;20239;-40
2023/06/03 07:23:10;;;;;;;4.00;1.50;;;28.40;69.50;;;;;;5073255;28;20052;-39
2023/06/03 07:25:41;;;;;;;3.92;1.40;;;26.80;69.50;;;;;;5072242;28;20352;-38
2023/06/03 07:28:12;;;;;;;4.43;1.80;;;25.10;70.10;;;;;;5063385;28;20130;-39
2023/06/03 07:30:40;;;;;;;4.85;1.67;;;24.30;71.60;;;;;;5073980;28;20044;-43
2023/06/03 07:33:08;;;;;;;2.47;1.80;;;23.60;71.40;;;;;;5066686;28;20273;-38
2023/06/03 07:35:37;;;;;;;4.60;1.45;;;22.70;71.40;;;;;;5063023;28;20051;-38
2023/06/03 07:38:06;;;;;;;3.28;1.40;;;21.90;72.40;;;;;;5057106;28;20127;-43
2023/06/03 07:40:42;;;;;;;2.08;1.35;;;21.20;74.20;;;;;;5059213;28;20044;-42
2023/06/03 07:43:09;;;;;;;3.72;1.60;;;20.80;74.80;;;;;;5064411;28;20048;-38
2023/06/03 07:45:35;;;;;;;2.88;1.27;;;20.30;75.80;;;;;;5072112;28;20086;-40
2023/06/03 07:48:03;;;;;;;3.05;1.60;;;19.90;76.80;;;;;;5071708;28;20051;-39
2023/06/03 07:50:29;;;;;;;4.85;2.53;;;19.50;77.80;;;;;;5066375;28;20054;-44
2023/06/03 07:53:01;;;;;;;2.13;1.48;;;19.30;78.40;;;;;;5072510;28;20492;-43
2023/06/03 07:55:33;;;;;;;3.58;1.38;;;19.10;79.50;;;;;;5072991;28;20451;-41
2023/06/03 07:57:59;;;;;;;3.50;1.63;;;18.70;80.10;;;;;;5075728;28;20127;-41
2023/06/03 08:00:25;;;;;;;3.50;1.33;;;18.50;81.40;;;;;;5077054;28;20044;-38
2023/06/03 08:02:51;;;;;;;2.83;1.27;;;18.30;82.60;;;;;;5077302;28;20392;-37
2023/06/03 08:05:24;;;;;;;4.35;1.60;;;18.10;82.50;;;;;;5076866;28;20545;-43
2023/06/03 08:07:49;;;;;;;3.05;1.35;;;18.00;83.30;;;;;;5070027;28;20044;-40
2023/06/03 08:10:24;;;;;;;2.28;1.60;;;18.10;83.00;;;;;;5068144;28;20047;-41
2023/06/03 08:12:50;;;;;;;2.85;1.40;;;18.30;84.70;;;;;;5073166;28;20044;-40
2023/06/03 08:15:40;;;;;;;4.70;1.40;;;18.70;86.80;;;;;;5074025;28;20052;-43
2023/06/03 08:18:06;;;;;;;2.72;1.60;;;19.10;85.00;;;;;;5011959;28;20204;-36
2023/06/03 08:20:34;;;;;;;3.17;1.50;;;19.40;84.50;;;;;;4992508;28;20672;-43
2023/06/03 08:23:00;;;;;;;5.32;1.67;;;19.70;84.20;;;;;;4995264;28;20093;-39
2023/06/03 08:25:26;;;;;;;3.60;1.42;;;19.80;83.00;;;;;;5001588;28;20160;-37
2023/06/03 08:27:52;;;;;;;4.70;1.60;;;20.00;83.20;;;;;;5003035;28;20049;-39
2023/06/03 08:30:21;;;;;;;4.95;1.90;;;20.10;82.90;;;;;;5010763;28;20045;-42
2023/06/03 08:32:47;;;;;;;4.70;1.80;;;20.20;83.20;;;;;;5010083;28;20810;-41
2023/06/03 08:35:15;;;;;;;3.03;1.52;;;20.20;82.50;;;;;;5011415;28;20049;-43
2023/06/03 08:37:42;;;;;;;2.00;1.50;;;20.20;83.00;;;;;;5023770;28;20289;-42
2023/06/03 08:40:13;;;;;;;3.60;1.40;;;20.10;81.50;;;;;;5012775;28;20496;-46
2023/06/03 08:42:46;;;;;;;2.42;1.38;;;20.30;82.10;;;;;;5019476;28;20449;-41
2023/06/03 08:45:15;;;;;;;3.63;1.52;;;20.30;82.70;;;;;;5009805;28;20576;-43
2023/06/03 08:48:04;;;;;;;2.33;1.65;;;20.40;81.80;;;;;;4995801;28;20041;-41
2023/06/03 08:50:32;;;;;;;2.67;1.40;;;20.50;81.40;;;;;;5007863;28;20448;-41
2023/06/03 08:53:03;;;;;;;3.55;1.42;;;20.60;81.30;;;;;;5012808;28;20213;-39
2023/06/03 08:55:30;;;;;;;6.25;1.50;;;20.70;80.50;;;;;;5064838;28;20499;-42
2023/06/03 08:58:14;;;;;;;3.40;1.50;;;20.80;80.20;;;;;;5069968;28;20047;-37
2023/06/03 09:00:42;;;;;;;4.85;1.30;;;20.80;80.00;;;;;;5075903;28;20245;-40
2023/06/03 09:03:11;;;;;;;3.35;1.27;;;20.80;78.80;;;;;;5073594;28;20268;-45
2023/06/03 09:05:38;;;;;;;4.55;1.50;;;20.80;78.60;;;;;;5075413;28;20078;-41
2023/06/03 09:08:05;;;;;;;5.18;1.38;;;20.80;78.00;;;;;;5074136;28;20166;-39
2023/06/03 09:10:32;;;;;;;3.22;1.55;;;20.80;77.20;;;;;;5075008;28;20043;-41
2023/06/03 09:12:59;;;;;;;6.75;1.30;;;20.70;76.80;;;;;;5074903;28;20051;-41
2023/06/03 09:15:25;;;;;;;2.72;1.42;;;20.80;77.40;;;;;;5074078;28;20135;-45
2023/06/03 09:17:51;;;;;;;2.63;1.42;;;20.60;74.40;;;;;;5074146;28;20067;-40
2023/06/03 09:20:17;;;;;;;1.38;1.08;;;20.50;75.00;;;;;;5075184;28;20094;-40
2023/06/03 09:22:46;;;;;;;2.50;1.40;;;20.50;76.10;;;;;;5075280;28;20051;-43
2023/06/03 09:25:13;;;;;;;3.70;1.50;;;20.80;77.50;;;;;;5074461;28;20052;-40
2023/06/03 09:27:39;;;;;;;5.78;1.48;;;20.80;75.20;;;;;;5073018;28;20312;-36
2023/06/03 09:30:06;;;;;;;4.43;1.67;;;20.80;74.60;;;;;;5074717;28;20052;-38
2023/06/03 09:32:35;;;;;;;2.97;1.13;;;20.80;74.20;;;;;;5073516;28;20054;-39
2023/06/03 09:35:04;;;;;;;4.22;1.20;;;20.80;74.90;;;;;;5074287;28;20494;-40
2023/06/03 09:37:33;;;;;;;2.88;1.40;;;20.60;75.00;;;;;;5063979;28;20414;-40
2023/06/03 09:40:00;;;;;;;3.75;1.27;;;20.50;75.70;;;;;;5066948;28;20143;-44
2023/06/03 09:42:45;;;;;;;2.92;1.00;;;20.40;76.30;;;;;;5072342;28;20478;-38
2023/06/03 09:45:31;;;;;;;2.60;1.52;;;20.40;75.90;;;;;;5071213;28;20739;-43
2023/06/03 09:47:58;;;;;;;2.97;1.38;;;20.40;76.70;;;;;;5073837;28;20563;-36
2023/06/03 09:50:27;;;;;;;3.80;1.10;;;20.40;77.40;;;;;;5067989;28;20133;-39
2023/06/03 09:52:53;;;;;;;3.03;1.50;;;20.60;76.50;;;;;;5073626;28;20357;-37
2023/06/03 09:55:22;;;;;;;4.15;1.58;;;20.60;75.80;;;;;;5072256;28;20163;-39
2023/06/03 09:58:09;;;;;;;2.95;1.50;;;20.50;74.10;;;;;;5074042;28;20052;-38
2023/06/03 10:00:49;;;;;;;3.67;1.40;;;20.50;75.40;;;;;;5074286;28;20063;-40
2023/06/03 10:03:16;;;;;;;4.03;1.80;;;20.60;76.30;;;;;;5073925;28;20063;-41
2023/06/03 10:05:41;;;;;;;4.78;1.52;;;20.50;75.80;;;;;;5072955;28;20492;-43
2023/06/03 10:08:08;;;;;;;3.40;1.50;;;20.70;75.70;;;;;;5073236;28;20047;-39
2023/06/03 10:10:34;;;;;;;2.63;1.40;;;20.60;75.60;;;;;;5074327;28;20046;-40
2023/06/03 10:13:19;;;;;;;4.40;1.40;;;20.60;76.70;;;;;;5073653;28;20048;-41
2023/06/03 10:15:46;;;;;;;2.53;1.38;;;20.80;76.60;;;;;;5074099;28;20054;-38
2023/06/03 10:18:11;;;;;;;2.58;1.27;;;20.70;74.70;;;;;;5072259;28;20040;-42
2023/06/03 10:20:39;;;;;;;1.42;1.05;;;20.60;75.10;;;;;;5071492;28;20738;-40
2023/06/03 10:23:07;;;;;;;4.90;1.10;;;20.60;75.00;;;;;;5072378;28;20098;-39
2023/06/03 10:25:44;;;;;;;2.95;1.40;;;20.60;76.00;;;;;;5073245;28;20237;-38
2023/06/03 10:28:11;;;;;;;3.50;1.20;;;20.70;76.50;;;;;;5071557;28;20142;-40
2023/06/03 10:30:37;;;;;;;3.03;1.60;;;20.80;77.60;;;;;;5073724;28;20042;-45
2023/06/03 10:33:04;;;;;;;3.25;1.30;;;20.70;75.20;;;;;;5072728;28;20071;-40
2023/06/03 10:35:34;;;;;;;2.78;1.45;;;20.80;76.20;;;;;;5073707;28;20048;-40
2023/06/03 10:38:02;;;;;;;6.40;1.30;;;21.00;76.10;;;;;;5057934;28;20075;-40
2023/06/03 10:40:28;;;;;;;2.30;1.02;;;21.20;76.40;;;;;;5059262;28;20067;-39
2023/06/03 10:42:55;;;;;;;2.45;1.10;;;21.30;76.30;;;;;;5067468;28;20052;-41
2023/06/03 10:45:25;;;;;;;2.63;1.20;;;21.30;74.00;;;;;;5069225;28;20083;-40
2023/06/03 10:47:57;;;;;;;2.40;1.27;;;21.10;74.00;;;;;;5073505;28;20151;-39
2023/06/03 10:50:50;;;;;;;3.08;1.20;;;21.00;74.80;;;;;;5066145;28;20117;-38
2023/06/03 10:53:19;;;;;;;2.03;1.17;;;21.20;75.60;;;;;;5072956;28;20114;-44
2023/06/03 10:56:04;;;;;;;2.45;1.40;;;21.20;74.70;;;;;;5074034;28;20455;-45
2023/06/03 10:58:31;;;;;;;3.25;1.17;;;21.20;74.40;;;;;;5073702;28;20047;-43
2023/06/03 11:01:05;;;;;;;5.05;1.50;;;21.10;72.20;;;;;;5072811;28;20551;-40
2023/06/03 11:03:33;;;;;;;2.95;1.30;;;21.20;71.80;;;;;;5072406;28;20044;-47
2023/06/03 11:06:18;;;;;;;5.00;1.48;;;21.20;73.20;;;;;;5072608;28;20039;-42
2023/06/03 11:09:05;;;;;;;2.50;1.08;;;21.20;73.40;;;;;;5072045;28;20051;-42
2023/06/03 11:11:52;;;;;;;2.05;1.00;;;21.10;73.50;;;;;;5073364;28;20087;-36
2023/06/03 11:14:27;;;;;;;4.50;1.10;;;21.10;75.00;;;;;;5072541;28;20059;-39
2023/06/03 11:17:15;;;;;;;2.20;1.20;;;21.10;74.70;;;;;;5072756;28;20075;-41
2023/06/03 11:19:55;;;;;;;3.28;1.35;;;21.10;75.20;;;;;;5074554;28;20425;-38
2023/06/03 11:22:27;;;;;;;1.80;1.00;;;21.10;72.80;;;;;;5072914;28;20056;-39
2023/06/03 11:24:53;;;;;;;3.90;1.35;;;21.00;72.50;;;;;;5068934;28;20052;-40
2023/06/03 11:27:21;;;;;;;2.38;1.13;;;21.00;73.00;;;;;;5069853;28;20048;-39
2023/06/03 11:29:46;;;;;;;4.03;1.58;;;20.90;73.60;;;;;;5071903;28;20036;-42
2023/06/03 11:32:26;;;;;;;2.50;1.30;;;21.00;76.60;;;;;;5071196;28;20050;-43
2023/06/03 11:35:25;;;;;;;3.50;1.48;;;21.10;75.20;;;;;;5073700;28;20054;-40
2023/06/03 11:37:54;;;;;;;3.85;1.75;;;21.10;74.40;;;;;;5065957;28;20058;-39
2023/06/03 11:40:21;;;;;;;2.67;1.30;;;20.90;73.20;;;;;;5069787;28;20051;-40
2023/06/03 11:42:47;;;;;;;4.70;1.17;;;21.20;76.00;;;;;;5074698;28;20443;-44
2023/06/03 11:45:21;;;;;;;4.53;1.33;;;21.40;76.90;;;;;;5076160;28;20077;-39
2023/06/03 11:48:10;;;;;;;6.35;1.33;;;21.40;74.40;;;;;;5075035;28;20136;-42
2023/06/03 11:50:57;;;;;;;2.00;1.30;;;21.40;76.00;;;;;;5074067;28;20084;-43
2023/06/03 11:53:36;;;;;;;2.00;1.50;;;21.40;73.90;;;;;;5076034;28;20432;-39
2023/06/03 11:56:09;;;;;;;3.65;1.42;;;21.40;75.50;;;;;;5073863;28;20513;-44
2023/06/03 11:58:36;;;;;;;3.70;1.30;;;21.50;77.30;;;;;;5075685;28;20058;-46
2023/06/03 12:01:22;;;;;;;4.22;1.25;;;21.70;76.20;;;;;;5066580;28;20099;-40
2023/06/03 12:04:01;;;;;;;7.93;1.85;;;21.70;74.20;;;;;;5074938;28;20116;-39
2023/06/03 12:06:33;;;;;;;3.78;1.70;;;21.60;77.20;;;;;;5073981;28;20054;-44
2023/06/03 12:08:58;;;;;;;5.20;1.77;;;21.40;74.80;;;;;;5076972;28;20416;-41
2023/06/03 12:11:28;;;;;;;4.38;1.45;;;21.40;75.20;;;;;;5058706;28;20511;-40
2023/06/03 12:13:54;;;;;;;2.10;1.30;;;21.30;76.70;;;;;;5076067;28;20138;-40
2023/06/03 12:16:36;;;;;;;3.45;1.35;;;21.40;76.10;;;;;;5076188;28;20539;-40
2023/06/03 12:19:06;;;;;;;3.38;1.27;;;21.60;76.90;;;;;;5076175;28;20420;-43
2023/06/03 12:21:33;;;;;;;2.55;1.45;;;21.60;75.80;;;;;;5076389;28;20087;-39
2023/06/03 12:23:59;;;;;;;4.15;1.48;;;21.50;75.70;;;;;;5075810;28;20054;-37
2023/06/03 12:26:25;;;;;;;3.67;1.50;;;21.60;76.20;;;;;;5075301;28;20040;-40
2023/06/03 12:29:04;;;;;;;6.25;1.63;;;21.60;75.20;;;;;;5076039;28;20412;-43
2023/06/03 12:31:30;;;;;;;3.85;1.40;;;21.40;74.30;;;;;;5076314;28;20044;-45
2023/06/03 12:33:55;;;;;;;2.10;1.10;;;21.60;75.60;;;;;;5076286;28;20089;-38
2023/06/03 12:36:22;;;;;;;4.18;1.35;;;21.50;74.10;;;;;;5073421;28;20056;-39
2023/06/03 12:38:54;;;;;;;3.22;1.92;;;21.40;75.00;;;;;;5066909;28;20082;-38
2023/06/03 12:41:20;;;;;;;4.57;1.35;;;21.50;76.20;;;;;;5074309;28;20127;-42
2023/06/03 12:43:47;;;;;;;2.00;1.15;;;21.60;77.30;;;;;;5067074;28;20055;-46
2023/06/03 12:46:21;;;;;;;3.13;1.30;;;21.70;78.20;;;;;;5075685;28;20047;-43
2023/06/03 12:48:47;;;;;;;5.15;1.40;;;21.80;78.50;;;;;;5076053;28;20054;-40
2023/06/03 12:51:23;;;;;;;4.03;1.50;;;21.90;76.20;;;;;;5069480;28;20040;-42
2023/06/03 12:53:49;;;;;;;3.42;1.20;;;21.90;74.20;;;;;;5075414;28;20048;-37
2023/06/03 12:56:16;;;;;;;5.63;1.45;;;22.00;76.00;;;;;;5075854;28;20054;-44
2023/06/03 12:58:42;;;;;;;3.42;1.23;;;21.90;75.80;;;;;;5076527;28;20585;-45